Aeroporto :
LOGIN :

Iscrizione | Disclaimer

   EN    FR    IT 

 










Sommario :    VFR   VFR Marginale   IFR   IFR Intensivo   IFR Molto Intensivo
Visibilità : 
Base nubi : 
>= 8 km
>= 3000ft
5 / 8 km
1000 / 3000 ft
1500m / 5 km
500 / 1000 ft
800 / 1500m
200 / 500 ft
< 800m
< 200 ft
Simboli :   Temporali  Nebbia  Neve Forte  Precipitazioni Forti  Vento > 20 kt
SIGMETs :   Varie  Temporali  Ghiacco  Turbolenza  Onda orograficha  Ceneri Vulcaniche






- Altitudine del aeroporto : 284 ft


EGUW - RAF Wattisham

ULTIMO METAR :
  • 020850Z 24003KT 8000 BR FEW110 SCT140 BKN180 02/01 Q1019 NOSIG RMK BLU BLU

METARs OBSOLETI :
  • 020750Z 26002KT 8000 BR FEW170 BKN190 02/01 Q1020 NOSIG RMK BLU BLU
  • 020650Z 32006KT 6000 BR BKN170 01/01 Q1020 RMK WHT

TAF AMD TAF EGUW
Valido dal 02 a 09 ore il 02 a 18 ore UTC


020908Z 0209/0218 28005KT CAVOK
TEMPO 0209/0211 7000 BR
BECMG 0214/0217 -RA BKN007
TEMPO 0216/0218 3500 RADZ BKN005



MetMap, La meteo Aeronautica in un colpo d'occhio ! - Copyright ORBIFLY Dicembre 2007 - Disclaimer

ORBIFLY MET'MAP TEAM :

Programmazione e sviluppo : Alexandra Zaïnal
Concezione : Baudouin d'Aumeries
Aiuto per la programmazione : Marc-Olivier Méhu
Supporto tecnico e logistico : Manuel Goepfert
Aiuto per la traduzione : Arnaldo La Scala

Contatto : metmap@orbifly.com




FONTI E CREDITI :

   NOAA